Hope, New Mexico
Current Conditions -  °F | °C
As of 5:51 AM on Thursday 30 Oct 2014 (Local Time) from KROW Reporting Station
Clear Clear  
Wind Chill: 46°   Ceiling: Unl
Heat Index: 46°   Visibility: 10mi
Dew Point: 43°   Wind: 3mph
Humidity: 89%   Direction: 330°NNW
Pressure: 30.16"   Gusts: NA
Location:  32.81°N, 104.73°W
Report Text: KROW 301151Z 33003KT 10SM CLR 08/06 A3016 RMK AO2 SLP175 T00780061 10106 20072 53008
Loading
Personal Weather Stations






























Interactive Weather Map
Tropical Storm Tracking
New forecast layout! Learn more

10-Day Weather Forecast

Advertisements
Track Severe Weather on mobile